createdAt,value
2017-09-12T00:00:56.766Z,959.2
2017-09-12T00:01:56.757Z,959.13
2017-09-12T00:02:56.751Z,959.11
2017-09-12T00:03:56.743Z,959.1
2017-09-12T00:04:56.735Z,959.14
2017-09-12T00:05:56.728Z,959.14
2017-09-12T00:06:56.722Z,959.15
2017-09-12T00:07:56.716Z,959.19
2017-09-12T00:08:56.707Z,959.19
2017-09-12T00:09:56.701Z,959.19
2017-09-12T00:10:56.694Z,959.16
2017-09-12T00:11:56.687Z,959.16
2017-09-12T00:12:56.679Z,959.13
2017-09-12T00:13:56.672Z,959.17
2017-09-12T00:14:56.667Z,959.13
2017-09-12T00:15:56.660Z,959.13
2017-09-12T00:16:56.651Z,959.04
2017-09-12T00:17:56.644Z,959.03
2017-09-12T00:18:56.637Z,959.05
2017-09-12T00:19:56.630Z,958.96
2017-09-12T00:20:56.623Z,959.01
2017-09-12T00:21:56.616Z,959.02
2017-09-12T00:22:56.608Z,958.98
2017-09-12T00:23:56.600Z,959.02
2017-09-12T00:24:56.593Z,959.03
2017-09-12T00:25:56.588Z,959.05
2017-09-12T00:26:56.581Z,959.06
2017-09-12T00:27:56.573Z,959.05
2017-09-12T00:28:56.566Z,959.08
2017-09-12T00:29:56.559Z,959.08
2017-09-12T00:30:56.552Z,959.01
2017-09-12T00:31:56.546Z,959.01
2017-09-12T00:32:56.537Z,959.03
2017-09-12T00:33:56.534Z,959.03
2017-09-12T00:34:56.522Z,959.04
2017-09-12T00:35:56.516Z,959.03
2017-09-12T00:36:56.508Z,959
2017-09-12T00:37:56.503Z,959.02
2017-09-12T00:38:56.495Z,958.99
2017-09-12T00:39:56.490Z,959
2017-09-12T00:40:56.480Z,958.99
2017-09-12T00:41:56.473Z,959
2017-09-12T00:42:56.468Z,959.04
2017-09-12T00:43:56.460Z,959.06
2017-09-12T00:44:56.453Z,959.08
2017-09-12T00:45:56.445Z,959.06
2017-09-12T00:46:56.439Z,959.13
2017-09-12T00:47:56.431Z,959.16
2017-09-12T00:48:56.424Z,959.14
2017-09-12T00:49:56.418Z,959.12
2017-09-12T00:50:56.413Z,959.12
2017-09-12T00:51:56.403Z,959.1
2017-09-12T00:52:56.395Z,959.1
2017-09-12T00:53:56.389Z,959.12
2017-09-12T00:54:56.381Z,959.14
2017-09-12T00:55:56.374Z,959.17
2017-09-12T00:56:56.468Z,959.16
2017-09-12T00:57:56.360Z,959.2
2017-09-12T00:58:56.353Z,959.22
2017-09-12T00:59:56.346Z,959.19
2017-09-12T01:00:56.339Z,959.23
2017-09-12T01:01:56.333Z,959.26
2017-09-12T01:02:56.326Z,959.26
2017-09-12T01:03:56.317Z,959.2
2017-09-12T01:04:56.412Z,959.21
2017-09-12T01:05:56.303Z,959.22
2017-09-12T01:06:56.297Z,959.25
2017-09-12T01:07:56.288Z,959.23
2017-09-12T01:08:56.281Z,959.23
2017-09-12T01:09:56.276Z,959.2
2017-09-12T01:10:56.268Z,959.22
2017-09-12T01:11:56.260Z,959.18
2017-09-12T01:12:56.255Z,959.2
2017-09-12T01:13:56.248Z,959.2
2017-09-12T01:14:56.239Z,959.2
2017-09-12T01:15:56.233Z,959.23
2017-09-12T01:16:56.226Z,959.18
2017-09-12T01:17:56.218Z,959.17
2017-09-12T01:18:56.211Z,959.15
2017-09-12T01:19:56.204Z,959.11
2017-09-12T01:20:56.197Z,959.12
2017-09-12T01:21:56.189Z,959.12
2017-09-12T01:22:56.182Z,959.14
2017-09-12T01:23:56.175Z,959.14
2017-09-12T01:24:56.170Z,959.12
2017-09-12T01:25:56.162Z,959.18
2017-09-12T01:26:56.154Z,959.18
2017-09-12T01:27:56.247Z,959.15
2017-09-12T01:28:56.139Z,959.15
2017-09-12T01:29:56.131Z,959.21
2017-09-12T01:30:56.125Z,959.23
2017-09-12T01:31:56.117Z,959.21
2017-09-12T01:32:56.110Z,959.22
2017-09-12T01:33:56.103Z,959.18
2017-09-12T01:34:56.096Z,959.22
2017-09-12T01:35:56.091Z,959.24
2017-09-12T01:36:56.082Z,959.23
2017-09-12T01:37:56.074Z,959.28
2017-09-12T01:38:56.068Z,959.22
2017-09-12T01:39:56.062Z,959.27
2017-09-12T01:40:56.054Z,959.25
2017-09-12T01:41:56.046Z,959.25
2017-09-12T01:42:56.040Z,959.22
2017-09-12T01:43:56.030Z,959.25
2017-09-12T01:44:56.025Z,959.22
2017-09-12T01:45:56.017Z,959.18
2017-09-12T01:46:56.011Z,959.24
2017-09-12T01:47:56.003Z,959.24
2017-09-12T01:48:55.996Z,959.25
2017-09-12T01:49:55.988Z,959.25
2017-09-12T01:50:55.982Z,959.22
2017-09-12T01:51:55.975Z,959.19
2017-09-12T01:52:55.969Z,959.23
2017-09-12T01:53:55.960Z,959.24
2017-09-12T01:54:55.953Z,959.2
2017-09-12T01:55:55.946Z,959.22
2017-09-12T01:56:55.938Z,959.27
2017-09-12T01:57:55.933Z,959.3
2017-09-12T01:58:55.924Z,959.26
2017-09-12T01:59:56.016Z,959.26
2017-09-12T02:00:55.910Z,959.23
2017-09-12T02:01:55.903Z,959.25
2017-09-12T02:02:55.895Z,959.25
2017-09-12T02:03:55.889Z,959.22
2017-09-12T02:04:55.883Z,959.24
2017-09-12T02:05:55.873Z,959.21
2017-09-12T02:06:55.867Z,959.18
2017-09-12T02:07:55.861Z,959.22
2017-09-12T02:08:55.854Z,959.22
2017-09-12T02:09:55.845Z,959.21
2017-09-12T02:10:55.838Z,959.23
2017-09-12T02:11:55.831Z,959.19
2017-09-12T02:12:55.826Z,959.21
2017-09-12T02:13:55.818Z,959.21
2017-09-12T02:14:55.832Z,959.21
2017-09-12T02:15:55.803Z,959.24
2017-09-12T02:16:55.895Z,959.2
2017-09-12T02:17:55.787Z,959.17
2017-09-12T02:18:55.783Z,959.17
2017-09-12T02:19:55.774Z,959.19
2017-09-12T02:20:55.765Z,959.19
2017-09-12T02:21:55.758Z,959.19
2017-09-12T02:22:55.853Z,959.23
2017-09-12T02:23:55.745Z,959.22
2017-09-12T02:24:55.737Z,959.2
2017-09-12T02:25:55.731Z,959.26
2017-09-12T02:26:55.723Z,959.24
2017-09-12T02:27:55.715Z,959.23
2017-09-12T02:28:55.708Z,959.25
2017-09-12T02:29:55.701Z,959.21
2017-09-12T02:30:55.695Z,959.18
2017-09-12T02:31:55.689Z,959.18
2017-09-12T02:32:55.681Z,959.17
2017-09-12T02:33:55.673Z,959.12
2017-09-12T02:34:55.667Z,959.15
2017-09-12T02:35:55.659Z,959.13
2017-09-12T02:36:55.652Z,959.1
2017-09-12T02:37:55.646Z,959.16
2017-09-12T02:38:55.638Z,959.08
2017-09-12T02:39:55.630Z,959.09
2017-09-12T02:40:55.623Z,959.07
2017-09-12T02:41:55.617Z,959.04
2017-09-12T02:42:55.609Z,959
2017-09-12T02:43:55.605Z,959.02
2017-09-12T02:44:55.596Z,959.04
2017-09-12T02:45:55.587Z,959.08
2017-09-12T02:46:55.580Z,959.03
2017-09-12T02:47:55.575Z,959.04
2017-09-12T02:48:55.567Z,959.04
2017-09-12T02:49:55.559Z,959.07
2017-09-12T02:50:55.553Z,959.06
2017-09-12T02:51:55.544Z,959.05
2017-09-12T02:52:55.538Z,959.03
2017-09-12T02:53:55.530Z,959.02
2017-09-12T02:54:55.523Z,959.07
2017-09-12T02:55:55.515Z,959.06
2017-09-12T02:56:55.508Z,959.11
2017-09-12T02:57:55.503Z,959.05
2017-09-12T02:58:55.495Z,959.13
2017-09-12T02:59:55.488Z,959.12
2017-09-12T03:00:55.579Z,959.13
2017-09-12T03:01:55.473Z,959.16
2017-09-12T03:02:55.465Z,959.2
2017-09-12T03:03:55.458Z,959.24
2017-09-12T03:04:55.451Z,959.28
2017-09-12T03:05:55.544Z,959.28
2017-09-12T03:06:55.437Z,959.36
2017-09-12T03:07:55.429Z,959.44
2017-09-12T03:08:55.421Z,959.43
2017-09-12T03:09:55.515Z,959.49
2017-09-12T03:10:55.407Z,959.52
2017-09-12T03:11:55.401Z,959.5
2017-09-12T03:12:55.393Z,959.53
2017-09-12T03:13:55.385Z,959.48
2017-09-12T03:14:55.378Z,959.53
2017-09-12T03:15:55.371Z,959.56
2017-09-12T03:16:55.366Z,959.59
2017-09-12T03:17:55.357Z,959.62
2017-09-12T03:18:55.350Z,959.59
2017-09-12T03:19:55.342Z,959.62
2017-09-12T03:20:55.335Z,959.62
2017-09-12T03:21:55.329Z,959.65
2017-09-12T03:22:55.321Z,959.65
2017-09-12T03:23:55.314Z,959.65
2017-09-12T03:24:55.307Z,959.69
2017-09-12T03:25:55.299Z,959.68
2017-09-12T03:26:55.293Z,959.65
2017-09-12T03:27:55.285Z,959.63
2017-09-12T03:28:55.278Z,959.67
2017-09-12T03:29:55.270Z,959.67
2017-09-12T03:30:55.264Z,959.65
2017-09-12T03:31:55.257Z,959.68
2017-09-12T03:32:55.251Z,959.67
2017-09-12T03:33:55.242Z,959.64
2017-09-12T03:34:55.235Z,959.64
2017-09-12T03:35:55.228Z,959.62
2017-09-12T03:36:55.222Z,959.6
2017-09-12T03:37:55.213Z,959.58
2017-09-12T03:38:55.306Z,959.63
2017-09-12T03:39:55.199Z,959.61
2017-09-12T03:40:55.192Z,959.67
2017-09-12T03:41:55.184Z,959.62
2017-09-12T03:42:55.178Z,959.65
2017-09-12T03:43:55.170Z,959.66
2017-09-12T03:44:55.162Z,959.68
2017-09-12T03:45:55.156Z,959.69
2017-09-12T03:46:55.149Z,959.72
2017-09-12T03:47:55.142Z,959.72
2017-09-12T03:48:55.134Z,959.68
2017-09-12T03:49:55.127Z,959.74
2017-09-12T03:50:55.119Z,959.69
2017-09-12T03:51:55.111Z,959.71
2017-09-12T03:52:55.104Z,959.72
2017-09-12T03:53:55.099Z,959.75
2017-09-12T03:54:55.092Z,959.77
2017-09-12T03:55:55.083Z,959.75
2017-09-12T03:56:55.075Z,959.8
2017-09-12T03:57:55.070Z,959.81
2017-09-12T03:58:55.063Z,959.79
2017-09-12T03:59:55.054Z,959.79
2017-09-12T04:00:55.048Z,959.79
2017-09-12T04:01:55.040Z,959.79
2017-09-12T04:02:55.032Z,959.83
2017-09-12T04:03:55.024Z,959.81
2017-09-12T04:04:55.018Z,959.85
2017-09-12T04:05:55.013Z,959.84
2017-09-12T04:06:55.002Z,959.86
2017-09-12T04:07:55.100Z,959.88
2017-09-12T04:08:54.989Z,959.84
2017-09-12T04:09:54.982Z,959.89
2017-09-12T04:10:54.976Z,959.91
2017-09-12T04:11:54.968Z,959.89
2017-09-12T04:12:55.062Z,959.9
2017-09-12T04:13:54.954Z,959.92
2017-09-12T04:14:54.947Z,959.89
2017-09-12T04:15:54.940Z,959.93
2017-09-12T04:16:54.933Z,959.9
2017-09-12T04:17:54.925Z,959.97
2017-09-12T04:18:54.919Z,959.97
2017-09-12T04:19:54.911Z,959.94
2017-09-12T04:20:54.903Z,959.96
2017-09-12T04:21:54.895Z,959.91
2017-09-12T04:22:54.889Z,959.94
2017-09-12T04:23:54.881Z,959.91
2017-09-12T04:24:54.874Z,959.92
2017-09-12T04:25:54.866Z,959.92
2017-09-12T04:26:54.860Z,959.92
2017-09-12T04:27:54.854Z,959.91
2017-09-12T04:28:54.845Z,959.91
2017-09-12T04:29:54.837Z,959.96
2017-09-12T04:30:54.830Z,959.98
2017-09-12T04:31:54.822Z,959.97
2017-09-12T04:32:54.816Z,960.01
2017-09-12T04:33:54.908Z,959.99
2017-09-12T04:34:54.803Z,960.04
2017-09-12T04:35:54.895Z,960.02
2017-09-12T04:36:54.788Z,960.03
2017-09-12T04:37:54.781Z,960.06
2017-09-12T04:38:54.772Z,960.1
2017-09-12T04:39:54.766Z,960.08
2017-09-12T04:40:54.860Z,960.07
2017-09-12T04:41:54.751Z,960.12
2017-09-12T04:42:54.744Z,960.09
2017-09-12T04:43:54.737Z,960.11
2017-09-12T04:44:54.729Z,960.14
2017-09-12T04:45:54.723Z,960.1
2017-09-12T04:46:54.714Z,960.1
2017-09-12T04:47:54.707Z,960.11
2017-09-12T04:48:54.701Z,960.07
2017-09-12T04:49:54.693Z,960.09
2017-09-12T04:50:54.684Z,960.12
2017-09-12T04:51:54.679Z,960.14
2017-09-12T04:52:54.670Z,960.14
2017-09-12T04:53:54.663Z,960.12
2017-09-12T04:54:54.656Z,960.13
2017-09-12T04:55:54.649Z,960.12
2017-09-12T04:56:54.643Z,960.13
2017-09-12T04:57:54.635Z,960.19
2017-09-12T04:58:54.626Z,960.16
2017-09-12T04:59:54.621Z,960.22
2017-09-12T05:00:54.613Z,960.22
2017-09-12T05:01:54.606Z,960.21
2017-09-12T05:02:54.600Z,960.2
2017-09-12T05:03:54.592Z,960.21
2017-09-12T05:04:54.584Z,960.23
2017-09-12T05:05:54.579Z,960.2
2017-09-12T05:06:54.570Z,960.27
2017-09-12T05:07:54.562Z,960.27
2017-09-12T05:08:54.553Z,960.28
2017-09-12T05:09:54.546Z,960.27
2017-09-12T05:11:54.533Z,960.3
2017-09-12T05:12:54.526Z,960.27
2017-09-12T05:13:54.518Z,960.32
2017-09-12T05:14:54.512Z,960.3
2017-09-12T05:15:54.503Z,960.35
2017-09-12T05:16:54.598Z,960.38
2017-09-12T05:17:54.489Z,960.38
2017-09-12T05:18:54.482Z,960.37
2017-09-12T05:19:54.474Z,960.36
2017-09-12T05:20:54.467Z,960.36
2017-09-12T05:21:54.460Z,960.35
2017-09-12T05:22:54.452Z,960.39
2017-09-12T05:23:54.445Z,960.43
2017-09-12T05:24:54.438Z,960.41
2017-09-12T05:25:54.432Z,960.4
2017-09-12T05:26:54.423Z,960.41
2017-09-12T05:27:54.415Z,960.4
2017-09-12T05:28:54.409Z,960.42
2017-09-12T05:29:54.402Z,960.41
2017-09-12T05:30:54.394Z,960.39
2017-09-12T05:31:54.386Z,960.45
2017-09-12T05:32:54.380Z,960.45
2017-09-12T05:33:54.373Z,960.47
2017-09-12T05:34:54.365Z,960.46
2017-09-12T05:35:54.358Z,960.48
2017-09-12T05:36:54.351Z,960.48
2017-09-12T05:37:54.342Z,960.5
2017-09-12T05:38:54.335Z,960.54
2017-09-12T05:39:54.331Z,960.59
2017-09-12T05:40:54.322Z,960.58
2017-09-12T05:41:54.313Z,960.62
2017-09-12T05:42:54.307Z,960.6
2017-09-12T05:43:54.298Z,960.67
2017-09-12T05:44:54.293Z,960.71
2017-09-12T05:45:54.285Z,960.69
2017-09-12T05:46:54.278Z,960.71
2017-09-12T05:47:54.272Z,960.68
2017-09-12T05:48:54.265Z,960.7
2017-09-12T05:49:54.256Z,960.68
2017-09-12T05:50:54.251Z,960.65
2017-09-12T05:51:54.241Z,960.66
2017-09-12T05:52:54.236Z,960.64
2017-09-12T05:53:54.226Z,960.67
2017-09-12T05:54:54.221Z,960.68
2017-09-12T05:55:54.212Z,960.62
2017-09-12T05:56:54.206Z,960.62
2017-09-12T05:57:54.198Z,960.6
2017-09-12T05:58:54.192Z,960.63
2017-09-12T05:59:54.181Z,960.6
2017-09-12T06:00:54.175Z,960.58
2017-09-12T06:01:54.170Z,960.6
2017-09-12T06:02:54.161Z,960.62
2017-09-12T06:03:54.155Z,960.58
2017-09-12T06:04:54.148Z,960.6
2017-09-12T06:05:54.140Z,960.59
2017-09-12T06:06:54.132Z,960.6
2017-09-12T06:07:54.126Z,960.58
2017-09-12T06:08:54.118Z,960.58
2017-09-12T06:09:54.112Z,960.56
2017-09-12T06:10:54.103Z,960.55
2017-09-12T06:11:54.096Z,960.55
2017-09-12T06:12:54.089Z,960.59
2017-09-12T06:13:54.082Z,960.64
2017-09-12T06:14:54.074Z,960.58
2017-09-12T06:15:54.068Z,960.62
2017-09-12T06:16:54.060Z,960.62
2017-09-12T06:17:54.053Z,960.64
2017-09-12T06:19:54.038Z,960.74
2017-09-12T06:20:54.032Z,960.78
2017-09-12T06:21:54.024Z,960.75
2017-09-12T06:22:54.018Z,960.75
2017-09-12T06:23:54.010Z,960.77
2017-09-12T06:24:54.005Z,960.82
2017-09-12T06:25:53.995Z,960.85
2017-09-12T06:26:54.089Z,960.82
2017-09-12T06:27:53.981Z,960.83
2017-09-12T06:28:53.974Z,960.84
2017-09-12T06:29:53.967Z,960.83
2017-09-12T06:30:53.960Z,960.88
2017-09-12T06:31:53.954Z,960.88
2017-09-12T06:32:53.945Z,960.89
2017-09-12T06:33:53.938Z,960.9
2017-09-12T06:34:53.931Z,960.92
2017-09-12T06:35:53.926Z,960.92
2017-09-12T06:36:53.919Z,960.93
2017-09-12T06:37:53.910Z,960.98
2017-09-12T06:38:53.904Z,961.03
2017-09-12T06:39:53.897Z,961.03
2017-09-12T06:40:53.889Z,961.02
2017-09-12T06:41:53.884Z,961.04
2017-09-12T06:42:53.876Z,961
2017-09-12T06:43:53.869Z,961.03
2017-09-12T06:44:53.860Z,961
2017-09-12T06:45:53.855Z,960.99
2017-09-12T06:46:53.850Z,961.03
2017-09-12T06:47:53.840Z,961.01
2017-09-12T06:48:53.834Z,960.99
2017-09-12T06:49:53.827Z,961.02
2017-09-12T06:50:53.820Z,960.96
2017-09-12T06:51:53.813Z,960.98
2017-09-12T06:52:53.807Z,960.98
2017-09-12T06:53:53.799Z,960.94
2017-09-12T06:54:53.792Z,960.98
2017-09-12T06:55:53.786Z,960.95
2017-09-12T06:56:53.778Z,960.96
2017-09-12T06:57:53.770Z,960.97
2017-09-12T06:58:53.764Z,961
2017-09-12T06:59:53.759Z,961.04
2017-09-12T07:00:53.751Z,961.01
2017-09-12T07:01:53.742Z,961.01
2017-09-12T07:02:53.736Z,961.06
2017-09-12T07:03:53.730Z,961.05
2017-09-12T07:04:53.723Z,961.06
2017-09-12T07:05:53.715Z,961.01
2017-09-12T07:06:53.709Z,961.06
2017-09-12T07:07:53.703Z,961.09
2017-09-12T07:08:53.795Z,961.09
2017-09-12T07:09:53.688Z,961.07
2017-09-12T07:10:53.682Z,961.07
2017-09-12T07:11:53.676Z,961.14
2017-09-12T07:12:53.667Z,961.14
2017-09-12T07:13:53.660Z,961.14
2017-09-12T07:14:53.654Z,961.12
2017-09-12T07:15:53.649Z,961.1
2017-09-12T07:16:53.641Z,961.15
2017-09-12T07:17:53.634Z,961.15
2017-09-12T07:18:53.629Z,961.16
2017-09-12T07:19:53.622Z,961.17
2017-09-12T07:20:53.614Z,961.21
2017-09-12T07:21:53.607Z,961.19
2017-09-12T07:22:53.602Z,961.22
2017-09-12T07:23:53.694Z,961.25
2017-09-12T07:24:53.588Z,961.31
2017-09-12T07:25:53.581Z,961.29
2017-09-12T07:26:53.574Z,961.35
2017-09-12T07:27:53.568Z,961.31
2017-09-12T07:28:53.560Z,961.36
2017-09-12T07:29:53.555Z,961.35
2017-09-12T07:30:53.547Z,961.45
2017-09-12T07:31:53.543Z,961.43
2017-09-12T07:32:53.533Z,961.43
2017-09-12T07:33:53.527Z,961.4
2017-09-12T07:34:53.520Z,961.4
2017-09-12T07:35:53.514Z,961.42
2017-09-12T07:36:53.507Z,961.39
2017-09-12T07:37:53.505Z,961.44
2017-09-12T07:38:53.493Z,961.43
2017-09-12T07:39:53.486Z,961.4
2017-09-12T07:40:53.480Z,961.44
2017-09-12T07:41:53.473Z,961.42
2017-09-12T07:42:53.465Z,961.45
2017-09-12T07:43:53.460Z,961.43
2017-09-12T07:44:53.454Z,961.42
2017-09-12T07:45:53.447Z,961.46
2017-09-12T07:46:53.440Z,961.49
2017-09-12T07:47:53.434Z,961.43
2017-09-12T07:48:53.426Z,961.47
2017-09-12T07:49:53.419Z,961.47
2017-09-12T07:50:53.414Z,961.5
2017-09-12T07:51:53.414Z,961.52
2017-09-12T07:52:53.399Z,961.5
2017-09-12T07:53:53.391Z,961.5
2017-09-12T07:54:53.386Z,961.48
2017-09-12T07:55:53.381Z,961.5
2017-09-12T07:56:53.374Z,961.51
2017-09-12T07:57:53.365Z,961.5
2017-09-12T07:58:53.358Z,961.53
2017-09-12T07:59:53.353Z,961.58
2017-09-12T08:00:53.346Z,961.6
2017-09-12T08:01:53.340Z,961.57
2017-09-12T08:02:53.332Z,961.56
2017-09-12T08:03:53.326Z,961.58
2017-09-12T08:04:53.320Z,961.59
2017-09-12T08:05:53.313Z,961.61
2017-09-12T08:06:53.307Z,961.63
2017-09-12T08:07:53.300Z,961.61
2017-09-12T08:08:53.295Z,961.63
2017-09-12T08:09:53.286Z,961.61
2017-09-12T08:10:53.279Z,961.65
2017-09-12T08:11:53.271Z,961.63
2017-09-12T08:12:53.267Z,961.69
2017-09-12T08:13:53.259Z,961.66
2017-09-12T08:14:53.250Z,961.67
2017-09-12T08:15:53.244Z,961.67
2017-09-12T08:16:53.238Z,961.7
2017-09-12T08:17:53.232Z,961.67
2017-09-12T08:18:53.224Z,961.69
2017-09-12T08:19:53.218Z,961.67
2017-09-12T08:20:53.211Z,961.7
2017-09-12T08:21:53.205Z,961.69
2017-09-12T08:22:53.198Z,961.73
2017-09-12T08:23:53.190Z,961.72
2017-09-12T08:24:53.185Z,961.73
2017-09-12T08:25:53.177Z,961.68
2017-09-12T08:26:53.171Z,961.7
2017-09-12T08:27:53.165Z,961.72
2017-09-12T08:28:53.158Z,961.73
2017-09-12T08:29:53.150Z,961.7
2017-09-12T08:30:53.145Z,961.75
2017-09-12T08:31:53.138Z,961.74
2017-09-12T08:32:53.132Z,961.7
2017-09-12T08:33:53.124Z,961.74
2017-09-12T08:34:53.118Z,961.73
2017-09-12T08:35:53.111Z,961.7
2017-09-12T08:36:53.103Z,961.71
2017-09-12T08:37:53.097Z,961.68
2017-09-12T08:38:53.096Z,961.66
2017-09-12T08:39:53.084Z,961.7
2017-09-12T08:40:53.077Z,961.71
2017-09-12T08:41:53.072Z,961.76
2017-09-12T08:42:53.063Z,961.75
2017-09-12T08:43:53.058Z,961.75
2017-09-12T08:44:53.049Z,961.76
2017-09-12T08:45:53.043Z,961.79
2017-09-12T08:46:53.039Z,961.76
2017-09-12T08:47:53.029Z,961.77
2017-09-12T08:48:53.024Z,961.74
2017-09-12T08:49:53.018Z,961.77
2017-09-12T08:50:53.011Z,961.77
2017-09-12T08:51:53.003Z,961.8
2017-09-12T08:52:52.997Z,961.78
2017-09-12T08:53:52.990Z,961.8
2017-09-12T08:54:52.984Z,961.74
2017-09-12T08:55:52.978Z,961.74
2017-09-12T08:56:52.972Z,961.76
2017-09-12T08:57:53.066Z,961.76
2017-09-12T08:58:52.959Z,961.76
2017-09-12T08:59:52.953Z,961.8
2017-09-12T09:00:52.946Z,961.83
2017-09-12T09:01:52.940Z,961.83
2017-09-12T09:02:52.933Z,961.81
2017-09-12T09:03:52.926Z,961.86
2017-09-12T09:04:52.919Z,961.85
2017-09-12T09:05:52.912Z,961.86
2017-09-12T09:06:52.907Z,961.93
2017-09-12T09:07:52.900Z,961.94
2017-09-12T09:08:52.895Z,961.9
2017-09-12T09:09:52.885Z,961.95
2017-09-12T09:10:52.881Z,961.92
2017-09-12T09:11:52.874Z,961.9
2017-09-12T09:12:52.867Z,961.91
2017-09-12T09:13:52.861Z,961.93
2017-09-12T09:14:52.853Z,961.94
2017-09-12T09:15:52.948Z,961.93
2017-09-12T09:16:52.841Z,961.9
2017-09-12T09:17:52.834Z,961.93
2017-09-12T09:18:52.827Z,961.97
2017-09-12T09:19:52.821Z,961.94
2017-09-12T09:20:52.815Z,961.95
2017-09-12T09:21:52.808Z,961.98
2017-09-12T09:22:52.803Z,961.96
2017-09-12T09:23:52.796Z,962
2017-09-12T09:24:52.795Z,962
2017-09-12T09:25:52.781Z,961.99
2017-09-12T09:26:52.777Z,961.97
2017-09-12T09:27:52.769Z,962.02
2017-09-12T09:28:52.764Z,962
2017-09-12T09:29:52.758Z,962.01
2017-09-12T09:30:52.750Z,962.03
2017-09-12T09:31:52.745Z,961.98
2017-09-12T09:32:52.738Z,962.04
2017-09-12T09:33:52.731Z,962.04
2017-09-12T09:34:52.725Z,962.07
2017-09-12T09:35:52.718Z,962.1
2017-09-12T09:36:52.713Z,962.09
2017-09-12T09:37:52.704Z,962.11
2017-09-12T09:38:52.697Z,962.13
2017-09-12T09:39:52.692Z,962.06
2017-09-12T09:40:52.684Z,962.13
2017-09-12T09:41:52.681Z,962.1
2017-09-12T09:42:52.672Z,962.13
2017-09-12T09:43:52.665Z,962.17
2017-09-12T09:44:52.660Z,962.18
2017-09-12T09:45:52.660Z,962.17
2017-09-12T09:46:52.648Z,962.16
2017-09-12T09:47:52.640Z,962.22
2017-09-12T09:48:52.634Z,962.17
2017-09-12T09:49:52.627Z,962.19
2017-09-12T09:50:52.621Z,962.16
2017-09-12T09:51:52.614Z,962.23
2017-09-12T09:52:52.609Z,962.25
2017-09-12T09:53:52.602Z,962.27
2017-09-12T09:54:52.595Z,962.28
2017-09-12T09:55:52.590Z,962.29
2017-09-12T09:56:52.584Z,962.3
2017-09-12T09:57:52.576Z,962.34
2017-09-12T09:58:52.570Z,962.31
2017-09-12T09:59:52.564Z,962.32
2017-09-12T10:00:52.558Z,962.33
2017-09-12T10:01:52.552Z,962.37
2017-09-12T10:02:52.547Z,962.34
2017-09-12T10:03:52.540Z,962.41
2017-09-12T10:04:52.536Z,962.37
2017-09-12T10:05:52.526Z,962.37
2017-09-12T10:06:52.521Z,962.38
2017-09-12T10:07:52.515Z,962.42
2017-09-12T10:08:52.509Z,962.39
2017-09-12T10:09:52.501Z,962.42
2017-09-12T10:10:52.498Z,962.44
2017-09-12T10:11:52.491Z,962.43
2017-09-12T10:12:52.488Z,962.45
2017-09-12T10:13:52.478Z,962.47
2017-09-12T10:14:52.473Z,962.51
2017-09-12T10:15:52.466Z,962.48
2017-09-12T10:16:52.459Z,962.46
2017-09-12T10:17:52.454Z,962.49
2017-09-12T10:18:52.448Z,962.51
2017-09-12T10:19:52.441Z,962.5
2017-09-12T10:20:52.436Z,962.55
2017-09-12T10:21:52.429Z,962.54
2017-09-12T10:22:52.422Z,962.54
2017-09-12T10:23:52.417Z,962.53
2017-09-12T10:24:52.413Z,962.55
2017-09-12T10:25:52.405Z,962.53
2017-09-12T10:26:52.399Z,962.54
2017-09-12T10:27:52.393Z,962.54
2017-09-12T10:28:52.387Z,962.56
2017-09-12T10:29:52.382Z,962.55
2017-09-12T10:30:52.377Z,962.53
2017-09-12T10:31:52.369Z,962.52
2017-09-12T10:32:52.465Z,962.48
2017-09-12T10:33:52.357Z,962.46
2017-09-12T10:34:52.352Z,962.55
2017-09-12T10:35:52.346Z,962.53
2017-09-12T10:36:52.341Z,962.59
2017-09-12T10:37:52.334Z,962.52
2017-09-12T10:38:52.329Z,962.56
2017-09-12T10:39:52.322Z,962.55
2017-09-12T10:40:52.316Z,962.52
2017-09-12T10:41:52.310Z,962.53
2017-09-12T10:42:52.304Z,962.55
2017-09-12T10:43:52.299Z,962.63
2017-09-12T10:44:52.293Z,962.63
2017-09-12T10:45:52.288Z,962.6
2017-09-12T10:46:52.281Z,962.64
2017-09-12T10:47:52.276Z,962.57
2017-09-12T10:48:52.268Z,962.61
2017-09-12T10:49:52.263Z,962.6
2017-09-12T10:50:52.258Z,962.59
2017-09-12T10:51:52.251Z,962.61
2017-09-12T10:52:52.246Z,962.6
2017-09-12T10:53:52.238Z,962.61
2017-09-12T10:54:52.333Z,962.64
2017-09-12T10:55:52.226Z,962.64
2017-09-12T10:56:52.220Z,962.67
2017-09-12T10:57:52.215Z,962.72
2017-09-12T10:58:52.210Z,962.71
2017-09-12T10:59:52.202Z,962.72
2017-09-12T11:00:52.197Z,962.71
2017-09-12T11:01:52.191Z,962.7
2017-09-12T11:02:52.184Z,962.72
2017-09-12T11:03:52.184Z,962.72
2017-09-12T11:04:52.174Z,962.8
2017-09-12T11:05:52.170Z,962.81
2017-09-12T11:06:52.161Z,962.78
2017-09-12T11:07:52.156Z,962.81
2017-09-12T11:08:52.149Z,962.81
2017-09-12T11:09:52.143Z,962.81
2017-09-12T11:10:52.137Z,962.8
2017-09-12T11:11:52.133Z,962.87
2017-09-12T11:12:52.125Z,962.84
2017-09-12T11:13:52.119Z,962.89
2017-09-12T11:14:52.115Z,962.84
2017-09-12T11:15:52.108Z,962.87
2017-09-12T11:16:52.102Z,962.92
2017-09-12T11:17:52.097Z,962.89
2017-09-12T11:18:52.089Z,962.92
2017-09-12T11:19:52.084Z,962.94
2017-09-12T11:20:52.078Z,962.96
2017-09-12T11:21:52.072Z,962.96
2017-09-12T11:22:52.067Z,962.92
2017-09-12T11:23:52.060Z,962.97
2017-09-12T11:24:52.055Z,962.99
2017-09-12T11:25:52.051Z,962.94
2017-09-12T11:26:52.044Z,962.91
2017-09-12T11:27:52.038Z,962.9
2017-09-12T11:28:52.031Z,962.95
2017-09-12T11:29:52.026Z,962.93
2017-09-12T11:30:52.021Z,962.99
2017-09-12T11:31:52.019Z,962.97
2017-09-12T11:32:52.009Z,962.95
2017-09-12T11:33:52.004Z,962.98
2017-09-12T11:34:51.999Z,963
2017-09-12T11:35:51.991Z,962.99
2017-09-12T11:36:51.986Z,962.97
2017-09-12T11:37:51.980Z,962.98
2017-09-12T11:38:51.976Z,962.97
2017-09-12T11:39:51.969Z,963
2017-09-12T11:40:51.962Z,963.06
2017-09-12T11:41:51.958Z,963.07
2017-09-12T11:42:51.952Z,963.08
2017-09-12T11:43:51.946Z,963.12
2017-09-12T11:44:51.939Z,963.16
2017-09-12T11:45:51.935Z,963.14
2017-09-12T11:46:51.929Z,963.18
2017-09-12T11:47:51.922Z,963.23
2017-09-12T11:48:51.917Z,963.18
2017-09-12T11:49:51.912Z,963.18
2017-09-12T11:50:51.906Z,963.17
2017-09-12T11:51:51.901Z,963.18
2017-09-12T11:52:51.994Z,963.19
2017-09-12T11:53:51.890Z,963.18
2017-09-12T11:54:51.883Z,963.22
2017-09-12T11:55:51.878Z,963.23
2017-09-12T11:56:51.874Z,963.2
2017-09-12T11:57:51.865Z,963.17
2017-09-12T11:58:51.861Z,963.2
2017-09-12T11:59:51.855Z,963.16
2017-09-12T12:00:51.850Z,963.14
2017-09-12T12:01:51.843Z,963.14
2017-09-12T12:02:51.840Z,963.2
2017-09-12T12:03:51.832Z,963.14
2017-09-12T12:04:51.827Z,963.14
2017-09-12T12:05:51.821Z,963.2
2017-09-12T12:06:51.817Z,963.22
2017-09-12T12:07:51.810Z,963.17
2017-09-12T12:08:51.805Z,963.16
2017-09-12T12:09:51.799Z,963.18
2017-09-12T12:10:51.794Z,963.17
2017-09-12T12:11:51.790Z,963.19
2017-09-12T12:12:51.781Z,963.25
2017-09-12T12:13:51.776Z,963.24
2017-09-12T12:14:51.774Z,963.21
2017-09-12T12:15:51.765Z,963.31
2017-09-12T12:16:51.759Z,963.3
2017-09-12T12:17:51.752Z,963.26
2017-09-12T12:18:51.751Z,963.19
2017-09-12T12:19:51.748Z,963.25
2017-09-12T12:20:51.740Z,963.27
2017-09-12T12:21:51.734Z,963.26
2017-09-12T12:22:51.728Z,963.24
2017-09-12T12:23:51.722Z,963.18
2017-09-12T12:24:51.814Z,963.16
2017-09-12T12:25:51.708Z,963.18
2017-09-12T12:26:51.706Z,963.15
2017-09-12T12:27:51.697Z,963.15
2017-09-12T12:28:51.692Z,963.14
2017-09-12T12:29:51.686Z,963.16
2017-09-12T12:30:51.679Z,963.17
2017-09-12T12:31:51.676Z,963.18
2017-09-12T12:32:51.669Z,963.16
2017-09-12T12:33:51.663Z,963.22
2017-09-12T12:34:51.658Z,963.22